Latest Observation

114 Stations

10 Minute Data
as of 9/6/26 12:43 PM PDT
Station Date Time Temp (°F) RH (%) Dew Pt (°F) Wind Spd (mph) Wind Dir (°) Wind Gust (mph) Wind Gst Dir (°) Latest Rain (In) Soil Moist (%) Soil Temp (°F) Daily Rain (In) Daily Min Temp (°F) Daily Max Temp (°F) Daily Max Wind (mph)
Hobart Mills 9/6/26 1240 61.7   2.8 47   6 41.0   0.8 6.0   1.6 SW | 215 17.0   6.5 SW | 216 0.00 7.4   0.0 59.5   0.8 0.00 44.3   5.2 63.4   3.7 23.2   7.7
Prosser Dam 9/6/26 1240 64.0   3.7 42   7 40.6   0.4 8.4   0.3 SW | 217 20.2   3.6 SSW | 193 0.00 5.2   0.0 57.8   0.1 0.00 37.4   2.0 64.7   2.5 27.7   7.1
West Incline Village 9/6/26 1240 57.0   3.0 49   6 38.2   0.1 7.1   2.2 S | 188 17.4   5.6 SSW | 194 0.00 11.6   0.1 55.1   0.1 0.00 45.4   2.0 58.0   3.3 19.6   4.5
Incline Village (Fairview Blvd) 9/6/26 1240 58.9   2.2 49   5 39.6   0.4 4.3   0.8 WSW | 245 11.9   1.2 SW | 216 0.00 7.6   0.0 67.4   0.2 0.00 48.3   2.0 59.6   2.2 16.9   3.4
Incline Village (Diamond Peak) 9/6/26 1240 56.1   2.6 53   5 39.3   0.2 4.7   2.0 WNW | 290 10.3   4.5 NW | 318 0.00 2.5   0.1 56.6   1.2 0.00 45.2   0.9 56.3   2.5 12.8   2.7
Incline Village (Mill Creek) 9/6/26 1240 60.8   2.5 49   3 41.6   0.7 4.4   1.7 W | 261 11.8   4.2 WSW | 256 0.00 2.9   0.0 60.0   0.3 0.00 46.1   0.8 61.8   2.6 15.5   3.0
Incline Village (Lakeshore Blvd) 9/6/26 1240 59.8   1.4 57   1 44.4   1.0 6.8   2.7 WSW | 237 10.6   2.0 SW | 234 0.00 22.0   1.1 58.3   1.9 0.00 41.0   3.0 60.4   1.4 13.5   3.2
Glenbrook 9/6/26 1240 62.3   2.9 42   9 38.6   2.6 9.2   1.6 SW | 236 15.6   1.9 SW | 223 0.00 43.6   0.1 58.1   0.0 0.00 51.0   10.9 62.5   2.2 20.5   3.0
Zephyr Cove 9/6/26 1240 63.8   2.0 29   12 30.6   7.1 2.9   2.3 SE | 137 11.0   7.3 SSE | 164 0.00 2.9   0.0 59.6   0.5 0.00 49.0   4.4 65.1   2.0 12.4   4.1
Kingsbury Grade 9/6/26 1240 63.4   3.2 32   12 32.9   4.9 3.7   0.7 WSW | 248 11.7   0.5 SW | 224 0.00 2.2   0.0 61.6   1.0 0.00 42.1   2.8 64.4   2.4 15.5   4.2
South Daggett Pass (Ridge) 9/6/26 1240 58.2   1.6 35   12 30.9   6.1 5.8   3.5 WNW | 282 19.8   7.8 W | 266 0.00 2.2   0.0 60.2   0.3 0.00 44.5   2.6 59.2   2.4 23.5   9.4
Palomino Valley 9/6/26 1240 73.0   4.3 26   7 36.5   1.9 4.9   6.4 WSW | 255 16.6   0.0 SW | 226 0.00 6.5   0.0 71.3   0.1 0.00 40.9   2.1 74.0   3.7 27.2   5.5
East Cold Springs 9/6/26 1240 67.3   4.0 32   6 36.2   1.1 19.1   14.5 SW | 233 28.1   16.4 SW | 234 0.00 1.5   0.0 67.2   0.6 0.00 47.6   2.2 68.0   3.4 29.3   13.2
Peavine 9/6/26 1240 64.4   2.6 30   7 32.5   2.6 18.9   10.0 WSW | 238 29.4   11.4 WSW | 241 0.00 4.2   0.1 64.2   1.5 0.00 52.2   7.3 65.3   2.1 31.6   2.6
West Verdi Peak 9/6/26 1340 61.6   2.5 42   6 38.3   0.9 5.6   1.1 SSW | 200 18.5   5.1 SW | 234 0.00 6.3   0.1 63.1   0.5 0.00 48.1   5.1 62.3   0.6 23.6   5.6
West Verdi 9/6/26 1240 67.7   3.3 35   6 38.7   0.9 11.4   0.9 SSE | 156 22.2   1.5 S | 179 0.00 6.0   0.0 72.2   0.7 0.00 46.0   1.6 68.9   4.0 36.6   15.9
South Verdi 9/6/26 1240 66.0   2.2 33   5 36.0   1.9 24.9   8.9 SSW | 213 36.9   14.3 SW | 218 0.00 9.9   0.1 65.7   1.0 0.00 48.6   1.8 66.8   2.1 39.9   17.3
Northwest Reno 9/6/26 1240 68.5   4.9 29   11 35.3   3.5 29.6   27.2 WSW | 249 38.5   30.8 WSW | 242 0.00 24.0   0.0 69.9   0.2 0.00 50.3   1.9 69.4   5.6 42.5   29.4
North Lawton 8/28/26 1620 63.8   17.1 74   52 55.4   16.5 1.5   11.6 ESE | 121 5.1   19.0 SE | 124 0.00 - 78.2   0.0 0.05 59.2   7.5 71.9   13.3 20.4   4.6
West Reno (Mogul) 9/6/26 1240 68.6   3.0 30   6 35.8   2.3 11.4   7.5 WSW | 255 24.0   13.4 WSW | 238 0.00 19.4   0.1 75.7   0.4 0.00 49.3   2.0 69.7   2.6 27.3   13.3
Caughlin (Hunter Lake Trail) 9/6/26 1240 68.8   4.5 27   15 33.4   7.5 11.1   6.8 SW | 229 24.5   16.3 WNW | 287 0.00 16.0   0.0 69.2   0.5 0.00 49.5   2.9 70.1   5.2 29.6   18.3
ArrowCreek 9/6/26 1240 69.6   5.0 29   11 35.6   3.7 17.3   11.0 SSE | 162 32.8   20.9 S | 169 0.00 - 32.0   0.0 0.00 48.2   0.8 70.0   5.0 36.8   24.8
Tracy 9/6/26 1240 75.0   7.5 21   14 32.3   6.8 16.8   13.8 WSW | 250 28.9   20.4 SW | 224 0.00 15.4   0.1 73.4   0.4 0.00 48.2   0.5 76.0   8.0 28.9   12.7
Virginia Highlands 9/6/26 1240 66.0   4.9 29   12 33.1   4.2 10.9   6.4 WSW | 243 21.2   11.5 WSW | 254 0.00 7.8   0.0 71.5   0.3 0.00 47.6   0.1 68.0   4.6 23.2   5.1
Virginia City 9/6/26 1240 66.7   5.9 22   18 26.2   10.1 13.8   6.9 SSW | 197 32.2   17.3 SSW | 201 0.00 4.6   0.0 69.4   0.4 0.00 48.6   2.6 67.4   4.6 32.2   11.1
Six Mile Canyon 9/6/26 1240 73.0   3.6 26   7 36.0   3.3 10.2   2.7 ESE | 119 17.5   2.5 ESE | 113 0.00 11.9   0.1 72.0   0.5 0.00 51.9   2.2 73.4   3.7 17.5   1.1
Mt Rose Highway 9/6/26 1240 59.4   2.5 40   8 34.8   2.6 5.0   0.4 S | 186 17.0   1.6 SSW | 206 0.00 7.4   0.0 58.8   0.0 0.00 44.7   0.5 60.8   2.5 25.0   1.6
Pleasant Valley 9/6/26 1240 69.9   3.4 30   7 36.7   2.4 17.9   10.7 SW | 236 26.6   12.2 WSW | 244 0.00 2.3   0.0 71.7   0.5 0.00 44.2   2.3 71.0   4.1 33.0   16.9
New Washoe City 9/6/26 1240 69.3   4.0 30   7 36.5   1.7 15.4   8.5 WSW | 243 25.8   10.1 SW | 232 0.00 3.4   0.0 69.8   0.3 0.00 47.3   2.1 71.1   3.6 29.3   13.4
Franktown Creek 9/6/26 1240 69.2   3.8 34   5 39.9   0.1 3.7   0.9 W | 275 16.4   4.3 WSW | 242 0.00 7.0   0.1 68.0   0.7 0.00 45.4   0.5 69.8   3.5 28.9   13.8
Musgrove Creek 9/6/26 1240 68.1   3.2 30   9 35.4   4.0 2.6   1.2 ENE | 75 12.4   2.1 SE | 128 0.00 10.2   0.0 59.4   0.3 0.00 49.6   0.5 68.4   3.1 17.5   1.9
East Carson 11/23/24 0110 28.6   28.4 - - 4.7   11.0 SW | 220 14.7   10.1 SW | 219 0.02 - 50.9   0.1 0.02 -25.9   79.1 42.9   14.6 16.0   10.7
Kings Canyon 9/6/26 1240 69.0   2.0 25   12 31.8   7.8 10.5   5.6 SW | 217 20.2   8.7 SSW | 197 0.00 4.2   0.0 65.7   1.0 0.00 49.5   5.9 70.5   2.6 25.0   12.4
Carson City (Voltaire Canyon) 9/6/26 1240 71.8   3.6 23   12 31.8   7.9 16.6   11.9 SW | 229 27.3   16.1 SW | 232 0.00 2.8   0.0 75.6   0.1 0.00 54.0   2.9 73.7   4.4 28.7   12.5
Jacks Valley 9/6/26 1240 70.6   1.8 24   8 32.2   5.8 14.8   9.6 WSW | 247 26.3   3.7 SW | 236 0.00 4.5   0.0 72.5   1.4 0.00 50.8   3.4 72.0   2.6 27.0   4.3
Genoa 9/6/26 1240 74.2   4.1 23   8 34.4   4.0 3.0   0.9 S | 174 11.2   3.0 SSW | 195 0.00 2.3   0.1 70.2   0.3 0.00 53.8   8.4 75.0   3.9 14.4   4.5
South Genoa (Walleys Hot Springs) 9/6/26 1240 75.0   3.3 20   8 31.3   5.5 8.8   2.9 SE | 132 22.2   8.3 SSE | 168 0.00 5.1   0.4 72.2   0.1 0.00 47.9   5.2 76.4   3.4 23.6   0.7
SW Gardnerville (HWY 88) 9/6/26 1240 73.6   3.6 24   6 34.2   2.4 16.2   1.3 S | 188 25.7   1.6 SSW | 194 0.00 2.7   0.0 66.6   0.7 0.00 50.4   6.4 74.5   3.9 32.2   1.2
Sheridan 9/6/26 1240 74.5   3.9 20   8 30.9   5.0 7.3   3.4 SSE | 158 18.3   4.7 E | 95 0.00 1.0   0.0 69.1   1.0 0.00 52.2   5.5 75.2   4.0 26.7   3.7
Ruhenstroth 9/6/26 1240 72.7   2.9 19   8 28.4   6.5 17.1   3.0 SSW | 201 31.7   4.6 SW | 217 0.00 6.8   0.0 71.0   1.0 0.00 51.1   0.8 74.1   3.9 36.0   8.9
Double Spring 9/6/26 1240 69.1   5.1 22   15 28.1   9.1 9.8   5.5 W | 266 20.6   10.8 W | 279 0.00 24.7   0.0 69.9   1.6 0.00 44.8   7.1 70.5   6.0 20.6   6.7
North Topaz Lake 9/6/26 1240 73.1   6.8 15   20 22.6   15.4 12.9   9.2 SSW | 209 24.8   16.5 WSW | 237 0.00 7.9   0.1 81.7   0.8 0.00 53.2   3.1 74.2   6.7 24.8   13.2
Wild Oat Mountain 9/6/26 1240 71.2   6.8 18   18 26.0   11.5 9.0   4.2 SSW | 203 18.0   7.8 S | 186 0.00 5.6   0.0 67.9   0.7 0.00 49.7   0.5 72.1   6.5 20.6   9.8
Smith Valley 9/6/26 1240 71.2   3.4 30   5 38.2   1.0 3.6   0.5 N | 352 7.1   1.0 N | 0 0.00 2.7   0.0 72.3   0.3 0.00 47.7   2.8 71.9   3.4 12.0   2.6
Pine Grove Mountain 9/6/26 1240 59.5   7.0 29   22 27.4   7.7 7.9   1.7 W | 274 14.3   1.2 WNW | 289 0.00 6.3   0.1 61.0   0.4 0.00 48.3   7.5 60.8   6.8 15.5   2.5
Paradise Hill 9/6/26 1240 71.0   3.3 29   4 37.2   0.2 13.3   9.2 WSW | 237 30.1   19.9 WSW | 247 0.00 9.6   0.0 71.7   1.3 0.00 49.4   1.4 72.7   4.0 30.1   9.9
Winnemucca 9/6/26 1240 70.7   2.9 29   4 37.4   1.0 12.2   6.9 WSW | 242 22.6   12.2 WSW | 253 0.00 5.6   0.0 71.8   0.8 0.00 52.3   2.0 71.7   2.9 22.6   11.2
NE Elko 9/6/26 1240 75.4   2.0 17   10 28.3   10.0 11.0   3.2 SW | 227 18.6   5.7 SSW | 205 0.00 5.5   0.0 68.3   0.3 0.00 39.8   0.6 76.2   0.6 20.4   2.7
North Elko 9/6/26 1240 73.3   2.7 19   9 28.1   7.6 16.6   6.0 SW | 231 27.1   5.1 WSW | 238 0.00 24.4   0.1 70.1   0.3 0.00 49.2   0.4 74.1   2.5 27.1   4.6
South Elko 9/6/26 1240 72.3   1.8 21   6 29.9   4.4 10.8   0.2 W | 271 22.5   3.9 WSW | 255 0.00 13.4   0.1 65.7   0.2 0.00 52.8   4.8 73.4   19.1 23.0   0.9
Lamoille 9/6/26 1240 73.6   3.7 17   16 26.8   13.4 15.7   12.3 WSW | 238 24.8   15.9 SW | 223 0.00 5.9   0.1 65.6   0.2 0.00 46.5   2.4 74.2   3.6 29.7   18.8
Reid Gardner Sub 9/6/26 1240 86.5   9.0 39   26 58.3   23.1 12.4   1.8 SSE | 163 19.8   3.0 SSE | 160 0.00 25.4   1.2 86.3   1.1 0.00 74.6   13.9 89.6   6.9 24.5   2.1
Corn Creek 9/6/26 1240 77.7   10.1 55   40 60.2   25.4 23.2   1.5 ENE | 76 33.2   1.7 ENE | 67 0.00 3.0   0.0 85.9   0.2 0.00 73.9   4.6 83.2   5.4 35.9   2.2
Lucky Strike 9/6/26 1150 71.3   6.2 46   35 49.8   30.4 2.1   13.9 NNW | 345 5.2   21.4 NNE | 13 0.00 3.1   0.0 77.8   0.7 0.00 66.9   5.2 73.3   5.1 20.6   7.2
Lower Angel Peak 9/6/26 1240 67.1   8.4 53   42 49.5   31.9 4.0   6.2 SSE | 166 11.7   8.2 SE | 124 0.00 3.1   0.0 71.4   0.4 0.00 58.6   4.7 69.3   7.0 16.0   3.9
Angel Peak 9/6/26 1240 55.2   8.8 62   48 42.4   29.1 9.5   1.8 WSW | 244 21.4   1.1 SW | 214 0.00 2.3   0.1 63.7   0.6 0.00 53.8   1.2 59.0   7.3 32.9   4.2
Upper Kyle Canyon 9/6/26 1240 58.4   9.0 62   48 45.5   28.5 4.9   0.8 NNW | 348 13.7   9.1 WNW | 291 0.00 7.7   0.0 73.8   0.4 0.00 57.1   0.5 61.6   8.5 24.3   9.8
Mt Charleston 9/6/26 1240 58.5   9.8 69   54 48.3   30.5 3.8   0.1 SSE | 153 7.2   7.3 SSE | 150 0.00 13.1   0.1 67.4   0.4 0.00 57.9   0.5 62.2   6.6 27.3   1.2
Mid Kyle Canyon 9/6/26 1240 63.2   10.8 69   58 52.8   37.5 11.3   2.9 S | 172 18.3   7.4 SSE | 155 0.00 5.7   0.0 72.9   0.7 0.00 62.3   3.1 69.0   7.8 26.4   2.1
Blue Diamond 9/6/26 1240 76.8   9.7 51   41 57.4   34.4 12.6   0.5 WNW | 282 27.1   5.7 NW | 316 0.00 1.2   0.0 84.2   0.4 0.00 74.9   6.7 80.0   7.7 27.1   0.9
Artesian Sub 9/6/26 1240 80.0   16.3 58   48 63.8   33.0 11.6   3.6 ESE | 110 17.6   2.6 ESE | 112 0.00 11.7   0.0 92.0   0.1 0.00 79.6   2.1 88.2   9.2 20.7   1.0
North Henderson 9/6/26 1240 82.4   12.8 52   38 63.0   23.8 5.0   3.2 S | 171 9.4   3.2 SW | 232 0.00 10.4   0.1 95.4   0.2 0.00 81.2   3.6 89.6   6.6 22.0   3.1
Sandy Valley 9/6/26 1240 74.4   12.3 67   48 62.8   23.3 8.9   4.6 SE | 124 14.0   0.1 SE | 126 0.00 7.2   0.1 84.6   0.4 0.04 70.8   2.7 80.2   7.0 15.2   1.2
Searchlight 9/6/26 1240 74.4   12.9 66   46 62.3   21.4 6.3   9.2 WSW | 242 9.8   15.9 SW | 224 0.00 5.6   0.0 82.7   1.0 0.01 70.6   5.0 76.7   11.6 11.3   14.4
Laughlin 9/6/26 1240 86.8   11.4 54   39 68.3   24.9 4.0   5.0 NE | 36 8.3   5.0 NNE | 20 0.00 4.4   0.1 97.1   0.9 0.00 86.3   6.9 92.9   5.8 9.9   7.9
31Mission Hills 9/6/26 1240 75.0   16.1 63   49 61.6   26.6 12.0   3.4 S | 175 18.5   0.1 S | 191 0.00 6.2   0.2 84.5   4.5 0.00 74.1   0.0 83.6   8.0 23.2   4.6
32 Enterprise Sierra Cliffs 9/6/26 1240 74.9   13.9 55   44 57.6   30.7 15.3   1.2 SSW | 201 21.1   2.4 SSW | 194 0.00 1.2   0.1 80.4   5.0 0.01 71.9   3.6 81.3   8.1 33.2   9.7
29 Calico Basin 9/6/26 1240 75.0   10.3 51   42 55.8   35.8 21.4   3.8 SW | 222 35.8   9.8 SW | 232 0.00 2.3   0.0 82.9   1.9 0.00 74.1   5.2 79.1   7.4 35.8   6.7
28 Indian Springs 9/6/26 1240 78.8   7.0 46   32 56.1   25.5 6.4   1.1 E | 98 11.4   0.1 E | 98 0.00 4.3   0.0 82.8   1.4 0.00 71.2   7.8 82.6   3.6 21.1   5.3
30 Jean 9/6/26 1240 71.1   16.7 79   66 64.4   33.3 11.1   1.5 SSW | 200 15.6   1.0 SSW | 192 0.01 4.7   0.1 80.5   2.9 0.03 70.2   4.3 80.8   7.9 17.5   0.9
VC Highlands NW 9/6/26 1240 66.3   6.5 27   12 31.7   3.1 5.7   3.2 SW | 235 12.7   4.4 WSW | 245 0.00 1.6   0.1 65.0   1.5 0.00 49.5   5.0 66.7   5.9 20.5   9.6
Glenbrook-Spooner Summit 9/6/26 0750 51.5   5.8 49   18 33.0   2.5 7.7   6.3 W | 261 22.2   17.1 WSW | 242 0.00 7.7   0.0 61.4   0.3 0.00 40.0   2.8 51.7   5.2 22.2   11.3
Hobo Hot Springs 9/6/26 1240 74.4   3.8 19   9 30.1   6.1 10.6   8.1 SW | 236 25.6   18.5 SW | 219 0.00 1.0   0.0 67.1   0.7 0.00 43.2   1.6 75.6   4.3 29.7   13.9
Jack Valley Ranch 2 9/6/26 1240 71.4   3.4 22   10 30.7   6.1 8.4   4.4 W | 276 19.9   9.3 WNW | 299 0.00 2.1   0.0 70.8   0.7 0.00 50.4   2.0 72.2   2.8 27.6   13.4
Genoa North 2 9/6/26 1240 72.8   2.4 20   7 29.4   5.4 6.2   0.4 SW | 217 14.4   3.2 SW | 236 0.00 0.8   0.1 70.0   1.8 0.00 54.8   10.1 73.7   2.7 22.7   5.1
Mottsville 2 9/6/26 1240 73.6   2.7 17   9 26.8   8.1 5.1   3.0 NNE | 24 12.9   5.0 NNE | 19 0.00 1.4   0.0 68.8   1.4 0.00 49.0   5.4 75.1   3.8 21.7   2.7
Kingsbury Village 3 9/6/26 1240 58.8   3.4 32   13 29.1   5.2 3.6   0.8 WNW | 294 12.3   6.0 N | 0 0.00 3.2   0.1 56.1   1.3 0.00 42.6   4.1 60.5   3.8 16.4   4.6
Kingsbury-Benjamin Dr 2 9/6/26 1240 61.7   4.1 30   13 29.8   5.1 2.9   0.4 W | 268 13.3   3.8 SSW | 207 0.00 2.7   0.1 61.3   1.2 0.00 44.8   3.8 62.2   3.9 18.0   2.4
Smith Valley-Wellington 9/6/26 1240 72.9   4.0 25   6 35.4   1.5 4.1   0.2 ESE | 102 13.3   2.4 S | 177 0.00 3.4   0.0 75.7   0.3 0.00 43.3   0.2 73.5   4.1 13.3   2.4
Sheridan South 2 9/6/26 1240 72.4   3.0 20   7 28.9   5.3 12.9   2.5 S | 184 23.7   0.5 S | 183 0.00 0.4   0.0 68.3   1.4 0.00 52.6   5.3 73.0   2.6 32.0   4.7
Silver Springs 9/6/26 1240 71.8   3.3 26   6 35.3   2.7 6.8   1.5 SE | 146 12.9   1.9 SSE | 152 0.00 4.8   0.0 74.4   1.1 0.00 48.3   0.5 72.4   2.9 16.5   0.4
Fernley 9/6/26 1240 72.1   2.3 26   5 35.5   2.3 7.2   0.3 SSE | 154 16.8   2.1 S | 176 0.00 3.1   0.0 73.9   0.9 0.00 50.1   2.2 72.8   2.5 23.7   5.3
Spanish Springs 9/6/26 1240 73.0   3.8 24   7 34.2   3.2 9.4   3.2 SSW | 199 19.6   6.6 SSW | 206 0.00 9.9   0.1 71.8   1.1 0.00 45.1   2.8 73.7   3.6 19.6   4.3
Suttcliffe South 2 9/6/26 1240 72.8   7.6 25   16 35.3   5.7 7.6   1.4 WSW | 240 21.7   7.1 SW | 236 0.00 4.0   0.0 68.6   0.8 0.00 43.0   3.7 73.7   7.5 28.3   12.8
Lemmon Valley North 9/6/26 1240 68.4   4.7 30   6 35.5   0.6 14.4   8.2 SW | 214 23.8   10.8 SW | 220 0.00 1.9   0.0 67.7   0.1 0.00 40.6   5.8 68.9   4.5 24.6   7.3
Lemmon Valley NW 3 9/6/26 1240 70.5   4.7 24   9 32.4   4.0 14.3   8.0 SW | 221 23.8   11.2 SSW | 201 0.00 1.2   0.1 69.9   0.9 0.00 39.6   0.0 71.7   4.9 27.1   14.4
VC Highlands North 9/6/26 1240 66.5   5.3 26   11 30.4   4.4 10.4   4.9 SW | 221 19.2   9.2 SW | 218 0.00 4.7   0.1 77.5   4.2 0.00 38.7   0.7 67.4   5.9 23.6   11.1
Upper Voltaire Cyn 9/6/26 1240 68.2   2.7 22   12 28.2   8.5 16.2   8.5 SSW | 202 33.7   17.3 SSW | 206 0.00 1.1   0.0 65.4   1.8 0.00 54.3   5.4 69.8   3.3 34.3   15.8
Yerington NW 9/6/26 1240 71.6   3.8 28   9 36.6   3.8 3.4   1.0 E | 100 9.1   3.1 E | 85 0.00 7.2   0.0 71.7   0.6 0.00 44.5   0.7 72.0   3.9 13.3   1.1
Spanish Springs SW 9/6/26 1240 72.2   4.9 24   8 33.6   3.0 12.7   5.8 WSW | 237 24.0   8.3 W | 259 0.00 1.4   0.0 70.3   0.7 0.00 45.9   1.3 73.0   4.2 24.0   8.3
Cosgrave 2 8/27/26 0750 62.9   4.1 34   3 33.8   1.4 2.6   0.5 WSW | 246 4.1   1.0 W | 267 0.00 3.8   0.1 77.4   2.9 0.00 62.7   3.3 77.4   3.5 11.2   3.9
Winnemucca-Grass Valley 2 9/6/26 1240 70.1   2.5 32   5 38.7   1.3 8.0   3.8 ESE | 120 12.7   4.7 ESE | 103 0.00 7.5   0.0 66.2   1.2 0.00 38.1   2.2 70.3   2.2 13.2   2.4
Winnemucca-Dutch Flat Rd 9/6/26 1240 69.7   2.1 28   3 35.0   1.1 10.3   6.1 SW | 223 16.9   5.5 SW | 225 0.00 6.1   0.0 71.1   0.6 0.00 52.6   2.9 70.9   2.4 18.9   3.1
Paradise Valley 2 9/6/26 1240 71.2   2.8 25   5 34.0   2.1 8.4   0.8 SW | 216 16.6   0.1 SW | 233 0.00 12.2   0.0 69.3   0.2 0.00 44.0   1.1 71.8   1.9 23.0   6.5
Golconda 2 9/6/26 1240 71.0   2.3 30   1 38.2   1.1 7.1   1.9 NNW | 346 13.0   3.8 NW | 322 0.00 1.9   0.1 75.2   2.9 0.00 48.0   2.1 71.5   2.0 20.9   3.2
Battle Mountain - South 9/6/26 1240 73.4   3.0 23   7 33.3   4.3 4.8   2.1 SW | 228 11.3   3.4 SSW | 203 0.00 9.3   0.0 71.7   0.5 0.00 46.6   2.0 74.6   3.7 11.8   0.1
Geiger Summit 9/6/26 1240 63.9   5.5 100   0 64.0   5.5 8.9   5.4 SW | 224 23.0   8.0 SSW | 199 0.00 6.0   0.0 58.0   0.2 0.00 46.4   4.4 64.3   4.8 24.1   1.7
Combs Canyon 3 9/6/26 1240 71.8   2.4 21   10 29.7   7.6 12.0   5.6 SW | 222 26.2   6.2 SSE | 168 0.00 1.0   0.0 70.2   0.4 0.00 49.9   2.3 73.0   2.5 28.6   8.6
Clear Creek 9/6/26 1240 68.1   4.0 23   13 29.3   7.3 11.5   1.8 SSW | 199 27.6   7.0 SW | 228 0.00 3.4   0.0 65.4   1.5 0.00 46.9   0.0 69.2   4.3 27.6   7.0
Eastlake 2 9/6/26 1240 70.5   3.7 23   10 30.7   5.5 9.4   2.5 S | 184 24.8   11.0 SSE | 152 0.00 3.4   0.0 68.9   0.1 0.00 42.7   0.8 71.6   3.8 32.2   17.5
Lovelock-Colado 2 9/6/26 1240 73.1   3.9 24   8 34.4   4.2 9.3   4.1 SW | 235 21.0   11.4 SSW | 198 0.00 - 72.6   1.2 0.00 49.8   4.8 73.6   3.4 21.0   4.5
Spanish Springs NW 9/6/26 1240 73.0   4.5 25   7 34.8   2.5 6.6   0.5 SSW | 196 14.0   2.8 SSE | 164 0.00 12.0   0.0 67.5   1.3 0.00 46.0   0.2 73.6   4.6 16.8   4.1
Battle Mountain NW 9/6/26 1240 71.5   1.6 27   5 35.6   2.9 3.6   0.8 NNE | 27 8.3   2.9 NE | 34 0.00 8.5   0.1 72.7   1.2 0.00 49.5   2.3 72.0   1.4 10.9   2.1
Austin 2 9/6/26 1140 71.2   2.6 15   7 21.3   7.4 13.7   1.5 W | 270 24.2   1.4 W | 279 0.00 2.5   0.1 73.0   0.5 0.00 34.6   2.9 72.7   3.3 24.2   4.7
Elko-Osino 9/6/26 1240 76.4   3.2 15   10 25.6   10.0 13.3   5.2 SW | 226 24.6   10.3 WSW | 238 0.00 1.3   0.0 72.7   0.1 0.00 39.2   0.0 77.4   3.4 29.3   6.3
Elko-Bill Fishpond 2 9/6/26 1240 75.6   6.0 15   16 24.0   13.3 15.4   10.0 W | 259 23.8   12.7 W | 270 0.00 3.4   0.0 65.9   0.2 0.00 41.9   0.6 76.6   6.3 28.3   15.0
Spring Creek SE 2 9/6/26 1240 75.9   3.4 14   11 23.4   10.9 9.5   1.7 SW | 216 20.6   3.4 SSW | 213 0.00 0.2   0.0 64.8   0.3 0.00 45.7   4.0 76.6   3.4 28.4   11.2
Spring Creek NW 9/6/26 1220 73.2   3.2 19   9 27.9   7.3 6.7   0.7 W | 279 14.4   1.1 NW | 306 0.00 2.1   0.0 68.0   0.3 0.00 49.7   2.0 75.0   3.3 18.8   0.7
Elko-Moleen 9/6/26 1240 75.2   2.4 19   9 29.5   7.6 9.9   5.9 W | 268 18.3   8.5 W | 273 0.00 6.2   0.0 73.2   0.2 0.00 39.7   1.5 76.8   3.5 22.8   10.7
Elko-West 9/6/26 1240 75.4   1.6 18   8 28.3   8.3 11.5   7.5 SW | 232 22.5   11.6 WSW | 237 0.00 32.5   0.3 64.3   0.4 0.00 36.8   2.2 76.5   1.8 23.5   7.6
Elko-Adobe Creek 9/6/26 1240 66.7   1.4 23   9 27.5   6.9 14.9   2.9 WSW | 246 22.6   1.7 WSW | 246 0.00 18.3   0.0 66.3   0.0 0.00 48.4   4.6 68.5   2.2 27.4   5.3
Tuscarora SW 9/6/26 1240 70.2   0.4 19   9 26.3   8.8 16.6   4.2 WSW | 249 23.8   2.1 WSW | 252 0.00 6.6   0.0 67.8   0.7 0.00 38.9   3.0 71.7   0.0 25.5   6.8
Elko-Monument Peak 9/6/26 1240 69.9   0.7 19   8 26.2   7.7 14.3   2.1 SSW | 212 24.8   4.5 SW | 225 0.00 4.0   0.0 66.5   0.0 0.00 31.4   0.0 71.7   1.0 25.8   5.1
Wild Horse 9/6/26 1240 69.3   2.2 21   9 27.6   6.7 18.7   4.3 SSW | 213 28.7   2.5 SSW | 208 0.00 4.4   0.0 62.9   0.6 0.00 34.0   0.1 70.5   2.2 30.4   4.2
Max     86.8 100 68.3 29.6 - 38.5 - 0.01 43.6 97.1 0.04 86.3 92.9 42.5
Avg     69.9 33 37.1 10.2 - 19.8 - 0.00 6.9 69.8 - - - -
Min     55.2 14 21.3 2.1 - 5.2 - 0.00 0.2 32.0 0.00 31.4 56.3 9.9